sensor_id;sensor_type;location;lat;lon;timestamp;pressure;altitude;pressure_sealevel;temperature;humidity
79150;BME280;68563;45.644;13.782;2023-04-01T00:00:18;99808.56;;;12.44;59.68
79150;BME280;68563;45.644;13.782;2023-04-01T00:02:44;99805.69;;;12.52;59.14
79150;BME280;68563;45.644;13.782;2023-04-01T00:05:10;99808.28;;;12.52;59.19
79150;BME280;68563;45.644;13.782;2023-04-01T00:07:37;99802.94;;;12.57;58.52
79150;BME280;68563;45.644;13.782;2023-04-01T00:10:04;99809.00;;;12.57;57.65
79150;BME280;68563;45.644;13.782;2023-04-01T00:12:30;99806.41;;;12.56;57.81
79150;BME280;68563;45.644;13.782;2023-04-01T00:14:55;99801.19;;;12.57;57.33
79150;BME280;68563;45.644;13.782;2023-04-01T00:17:21;99822.88;;;12.56;56.60
79150;BME280;68563;45.644;13.782;2023-04-01T00:19:47;99810.84;;;12.54;56.85
79150;BME280;68563;45.644;13.782;2023-04-01T00:22:12;99803.09;;;12.52;56.54
79150;BME280;68563;45.644;13.782;2023-04-01T00:24:38;99809.13;;;12.53;56.10
79150;BME280;68563;45.644;13.782;2023-04-01T00:27:04;99784.81;;;12.30;56.19
79150;BME280;68563;45.644;13.782;2023-04-01T00:29:29;99806.25;;;12.35;55.77
79150;BME280;68563;45.644;13.782;2023-04-01T00:31:56;99806.09;;;12.40;55.45
79150;BME280;68563;45.644;13.782;2023-04-01T00:34:22;99814.72;;;12.42;54.77
79150;BME280;68563;45.644;13.782;2023-04-01T00:36:49;99796.97;;;12.29;55.02
79150;BME280;68563;45.644;13.782;2023-04-01T00:39:15;99778.06;;;12.24;54.92
79150;BME280;68563;45.644;13.782;2023-04-01T00:41:40;99781.78;;;12.17;55.47
79150;BME280;68563;45.644;13.782;2023-04-01T00:44:22;99790.38;;;12.19;55.21
79150;BME280;68563;45.644;13.782;2023-04-01T00:46:48;99768.78;;;12.17;55.11
79150;BME280;68563;45.644;13.782;2023-04-01T00:49:16;99786.03;;;12.20;54.69
79150;BME280;68563;45.644;13.782;2023-04-01T00:51:45;99785.84;;;12.24;54.60
79150;BME280;68563;45.644;13.782;2023-04-01T00:54:14;99793.09;;;12.16;54.91
79150;BME280;68563;45.644;13.782;2023-04-01T00:56:45;99782.69;;;12.16;54.93
79150;BME280;68563;45.644;13.782;2023-04-01T00:59:21;99784.28;;;12.20;54.61
79150;BME280;68563;45.644;13.782;2023-04-01T01:01:48;99782.50;;;12.22;54.30
79150;BME280;68563;45.644;13.782;2023-04-01T01:04:27;99792.88;;;12.22;54.66
79150;BME280;68563;45.644;13.782;2023-04-01T01:09:45;99788.78;;;12.15;54.88
79150;BME280;68563;45.644;13.782;2023-04-01T01:12:34;99775.81;;;12.15;54.74
79150;BME280;68563;45.644;13.782;2023-04-01T01:22:57;99765.97;;;12.25;53.61
79150;BME280;68563;45.644;13.782;2023-04-01T01:33:39;99740.97;;;12.22;53.32
79150;BME280;68563;45.644;13.782;2023-04-01T01:36:12;99740.84;;;12.25;53.05
79150;BME280;68563;45.644;13.782;2023-04-01T01:38:39;99734.66;;;12.29;53.05
79150;BME280;68563;45.644;13.782;2023-04-01T01:41:07;99737.19;;;12.31;52.93
79150;BME280;68563;45.644;13.782;2023-04-01T01:43:37;99735.56;;;12.28;53.52
79150;BME280;68563;45.644;13.782;2023-04-01T01:46:11;99724.28;;;12.29;52.68
79150;BME280;68563;45.644;13.782;2023-04-01T01:48:38;99724.16;;;12.33;52.60
79150;BME280;68563;45.644;13.782;2023-04-01T01:51:06;99717.91;;;12.38;51.74
79150;BME280;68563;45.644;13.782;2023-04-01T01:53:31;99718.91;;;12.34;51.84
79150;BME280;68563;45.644;13.782;2023-04-01T01:55:57;99715.41;;;12.35;51.90
79150;BME280;68563;45.644;13.782;2023-04-01T01:58:27;99712.84;;;12.34;52.15
79150;BME280;68563;45.644;13.782;2023-04-01T02:01:00;99724.03;;;12.36;52.19
79150;BME280;68563;45.644;13.782;2023-04-01T02:03:29;99724.03;;;12.36;52.86
79150;BME280;68563;45.644;13.782;2023-04-01T02:05:57;99725.78;;;12.35;52.64
79150;BME280;68563;45.644;13.782;2023-04-01T02:08:32;99723.19;;;12.35;52.52
79150;BME280;68563;45.644;13.782;2023-04-01T02:11:02;99715.22;;;12.40;51.80
79150;BME280;68563;45.644;13.782;2023-04-01T02:13:58;99717.06;;;12.38;52.47
79150;BME280;68563;45.644;13.782;2023-04-01T02:16:32;99716.13;;;12.39;51.46
79150;BME280;68563;45.644;13.782;2023-04-01T02:19:02;99709.38;;;12.35;51.09
79150;BME280;68563;45.644;13.782;2023-04-01T02:21:33;99720.44;;;12.40;50.92
79150;BME280;68563;45.644;13.782;2023-04-01T02:24:00;99708.97;;;12.45;50.07
79150;BME280;68563;45.644;13.782;2023-04-01T02:26:27;99711.97;;;12.35;50.27
79150;BME280;68563;45.644;13.782;2023-04-01T02:28:54;99703.44;;;12.31;49.91
79150;BME280;68563;45.644;13.782;2023-04-01T02:31:20;99712.34;;;12.24;50.17
79150;BME280;68563;45.644;13.782;2023-04-01T02:33:47;99701.53;;;12.11;50.13
79150;BME280;68563;45.644;13.782;2023-04-01T02:36:14;99706.50;;;12.17;50.38
79150;BME280;68563;45.644;13.782;2023-04-01T02:38:41;99707.47;;;12.15;50.97
79150;BME280;68563;45.644;13.782;2023-04-01T02:41:07;99715.44;;;12.10;50.36
79150;BME280;68563;45.644;13.782;2023-04-01T02:43:33;99716.19;;;12.13;50.96
79150;BME280;68563;45.644;13.782;2023-04-01T02:45:59;99716.78;;;12.20;50.47
79150;BME280;68563;45.644;13.782;2023-04-01T02:48:24;99712.63;;;12.16;50.90
79150;BME280;68563;45.644;13.782;2023-04-01T02:50:50;99712.78;;;12.11;50.69
79150;BME280;68563;45.644;13.782;2023-04-01T02:53:16;99721.38;;;12.13;50.95
79150;BME280;68563;45.644;13.782;2023-04-01T02:55:42;99730.78;;;12.16;50.87
79150;BME280;68563;45.644;13.782;2023-04-01T02:58:07;99731.56;;;12.18;50.84
79150;BME280;68563;45.644;13.782;2023-04-01T03:00:33;99727.19;;;12.20;50.68
79150;BME280;68563;45.644;13.782;2023-04-01T03:02:58;99738.16;;;12.28;50.49
79150;BME280;68563;45.644;13.782;2023-04-01T03:05:24;99743.41;;;12.27;50.82
79150;BME280;68563;45.644;13.782;2023-04-01T03:07:49;99742.53;;;12.26;51.17
79150;BME280;68563;45.644;13.782;2023-04-01T03:10:15;99751.22;;;12.25;51.57
79150;BME280;68563;45.644;13.782;2023-04-01T03:12:40;99754.78;;;12.23;52.89
79150;BME280;68563;45.644;13.782;2023-04-01T03:15:06;99757.28;;;12.26;51.76
79150;BME280;68563;45.644;13.782;2023-04-01T03:17:32;99755.56;;;12.25;51.75
79150;BME280;68563;45.644;13.782;2023-04-01T03:19:57;99761.75;;;12.21;51.69
79150;BME280;68563;45.644;13.782;2023-04-01T03:22:22;99756.53;;;12.22;51.84
79150;BME280;68563;45.644;13.782;2023-04-01T03:24:49;99751.34;;;12.22;52.11
79150;BME280;68563;45.644;13.782;2023-04-01T03:27:15;99753.06;;;12.22;52.58
79150;BME280;68563;45.644;13.782;2023-04-01T03:29:40;99755.56;;;12.25;51.93
79150;BME280;68563;45.644;13.782;2023-04-01T03:32:06;99747.25;;;12.15;51.92
79150;BME280;68563;45.644;13.782;2023-04-01T03:34:32;99756.53;;;12.22;52.57
79150;BME280;68563;45.644;13.782;2023-04-01T03:36:57;99753.94;;;12.22;53.17
79150;BME280;68563;45.644;13.782;2023-04-01T03:39:23;99753.22;;;12.17;53.50
79150;BME280;68563;45.644;13.782;2023-04-01T03:41:48;99753.34;;;12.14;54.21
79150;BME280;68563;45.644;13.782;2023-04-01T03:44:14;99749.25;;;12.07;54.35
79150;BME280;68563;45.644;13.782;2023-04-01T03:46:40;99749.94;;;12.12;54.28
79150;BME280;68563;45.644;13.782;2023-04-01T03:49:10;99750.91;;;12.09;54.48
79150;BME280;68563;45.644;13.782;2023-04-01T03:51:40;99759.03;;;11.99;54.35
79150;BME280;68563;45.644;13.782;2023-04-01T03:54:07;99762.50;;;11.99;54.40
79150;BME280;68563;45.644;13.782;2023-04-01T03:56:32;99754.78;;;11.96;54.54
79150;BME280;68563;45.644;13.782;2023-04-01T03:58:57;99754.88;;;11.93;54.92
79150;BME280;68563;45.644;13.782;2023-04-01T04:01:23;99739.63;;;11.84;54.72
79150;BME280;68563;45.644;13.782;2023-04-01T04:03:50;99755.66;;;11.96;54.92
79150;BME280;68563;45.644;13.782;2023-04-01T04:06:17;99758.97;;;12.02;55.10
79150;BME280;68563;45.644;13.782;2023-04-01T04:08:43;99749.53;;;11.99;55.55
79150;BME280;68563;45.644;13.782;2023-04-01T04:11:10;99748.56;;;12.02;55.16
79150;BME280;68563;45.644;13.782;2023-04-01T04:13:35;99736.59;;;11.97;55.57
79150;BME280;68563;45.644;13.782;2023-04-01T04:16:02;99748.59;;;12.00;55.62
79150;BME280;68563;45.644;13.782;2023-04-01T04:18:28;99750.28;;;12.03;55.60
79150;BME280;68563;45.644;13.782;2023-04-01T04:20:53;99748.56;;;12.02;55.46
79150;BME280;68563;45.644;13.782;2023-04-01T04:23:19;99750.47;;;11.96;55.34
79150;BME280;68563;45.644;13.782;2023-04-01T04:26:00;99759.13;;;11.95;55.60
79150;BME280;68563;45.644;13.782;2023-04-01T04:28:27;99766.03;;;11.96;55.90
79150;BME280;68563;45.644;13.782;2023-04-01T04:30:53;99778.19;;;11.94;55.70
79150;BME280;68563;45.644;13.782;2023-04-01T04:33:18;99770.44;;;11.93;55.68
79150;BME280;68563;45.644;13.782;2023-04-01T04:35:45;99780.81;;;11.93;55.76
79150;BME280;68563;45.644;13.782;2023-04-01T04:38:10;99774.78;;;11.92;55.71
79150;BME280;68563;45.644;13.782;2023-04-01T04:40:36;99778.53;;;11.84;56.06
79150;BME280;68563;45.644;13.782;2023-04-01T04:43:03;99799.03;;;11.91;55.88
79150;BME280;68563;45.644;13.782;2023-04-01T04:45:28;99799.16;;;11.88;55.24
79150;BME280;68563;45.644;13.782;2023-04-01T04:47:53;99809.63;;;11.85;55.38
79150;BME280;68563;45.644;13.782;2023-04-01T04:50:19;99817.41;;;11.85;55.45
79150;BME280;68563;45.644;13.782;2023-04-01T04:52:44;99808.78;;;11.85;55.58
79150;BME280;68563;45.644;13.782;2023-04-01T04:55:10;99817.41;;;11.85;55.68
79150;BME280;68563;45.644;13.782;2023-04-01T04:57:35;99806.19;;;11.85;55.62
79150;BME280;68563;45.644;13.782;2023-04-01T05:00:01;99805.28;;;11.86;56.21
79150;BME280;68563;45.644;13.782;2023-04-01T05:02:26;99822.44;;;11.90;57.39
79150;BME280;68563;45.644;13.782;2023-04-01T05:04:51;99816.41;;;11.89;57.80
79150;BME280;68563;45.644;13.782;2023-04-01T05:07:17;99819.91;;;11.88;58.35
79150;BME280;68563;45.644;13.782;2023-04-01T05:09:42;99826.78;;;11.89;58.44
79150;BME280;68563;45.644;13.782;2023-04-01T05:12:07;99831.97;;;11.89;58.82
79150;BME280;68563;45.644;13.782;2023-04-01T05:14:33;99820.00;;;11.85;58.98
79150;BME280;68563;45.644;13.782;2023-04-01T05:16:58;99831.06;;;11.90;59.21
79150;BME280;68563;45.644;13.782;2023-04-01T05:19:24;99837.16;;;11.89;59.27
79150;BME280;68563;45.644;13.782;2023-04-01T05:21:49;99844.03;;;11.90;59.39
79150;BME280;68563;45.644;13.782;2023-04-01T05:24:15;99846.53;;;11.93;59.28
79150;BME280;68563;45.644;13.782;2023-04-01T05:26:40;99836.09;;;11.95;59.55
79150;BME280;68563;45.644;13.782;2023-04-01T05:29:06;99837.88;;;11.94;59.50
79150;BME280;68563;45.644;13.782;2023-04-01T05:31:31;99851.63;;;11.98;59.64
79150;BME280;68563;45.644;13.782;2023-04-01T05:33:57;99849.03;;;11.98;59.31
79150;BME280;68563;45.644;13.782;2023-04-01T05:36:22;99847.22;;;12.00;59.14
79150;BME280;68563;45.644;13.782;2023-04-01T05:38:47;99853.16;;;12.04;59.14
79150;BME280;68563;45.644;13.782;2023-04-01T05:41:14;99855.94;;;11.97;59.21
79150;BME280;68563;45.644;13.782;2023-04-01T05:43:40;99862.00;;;11.98;59.40
79150;BME280;68563;45.644;13.782;2023-04-01T05:46:06;99873.56;;;12.15;58.85
79150;BME280;68563;45.644;13.782;2023-04-01T05:48:35;99865.97;;;12.35;57.85
79150;BME280;68563;45.644;13.782;2023-04-01T05:51:01;99868.88;;;12.53;57.07
79150;BME280;68563;45.644;13.782;2023-04-01T05:53:27;99866.53;;;12.45;57.19
79150;BME280;68563;45.644;13.782;2023-04-01T05:55:52;99871.97;;;12.37;56.84
79150;BME280;68563;45.644;13.782;2023-04-01T05:58:18;99858.25;;;12.34;56.72
79150;BME280;68563;45.644;13.782;2023-04-01T06:00:43;99870.34;;;12.35;57.05
79150;BME280;68563;45.644;13.782;2023-04-01T06:03:09;99870.13;;;12.41;56.41
79150;BME280;68563;45.644;13.782;2023-04-01T06:05:42;99880.31;;;12.47;56.16
79150;BME280;68563;45.644;13.782;2023-04-01T06:08:12;99886.75;;;12.62;55.73
79150;BME280;68563;45.644;13.782;2023-04-01T06:16:25;99877.19;;;12.88;52.90
79150;BME280;68563;45.644;13.782;2023-04-01T06:19:10;99877.13;;;12.89;53.60
79150;BME280;68563;45.644;13.782;2023-04-01T06:27:41;99882.56;;;12.83;53.32
79150;BME280;68563;45.644;13.782;2023-04-01T06:30:34;99889.38;;;12.86;53.00
79150;BME280;68563;45.644;13.782;2023-04-01T06:33:16;99884.25;;;12.84;52.80
79150;BME280;68563;45.644;13.782;2023-04-01T06:49:31;99914.47;;;13.12;53.34
79150;BME280;68563;45.644;13.782;2023-04-01T06:54:48;99913.94;;;13.28;53.15
79150;BME280;68563;45.644;13.782;2023-04-01T06:57:29;99904.28;;;13.30;52.71
79150;BME280;68563;45.644;13.782;2023-04-01T06:59:59;99904.28;;;13.30;51.82
79150;BME280;68563;45.644;13.782;2023-04-01T07:02:29;99907.69;;;13.32;51.88
79150;BME280;68563;45.644;13.782;2023-04-01T07:04:58;99914.25;;;13.44;52.20
79150;BME280;68563;45.644;13.782;2023-04-01T07:07:41;99930.28;;;13.55;52.01
79150;BME280;68563;45.644;13.782;2023-04-01T07:10:16;99923.63;;;13.71;52.35
79150;BME280;68563;45.644;13.782;2023-04-01T07:12:48;99934.03;;;13.94;52.16
79150;BME280;68563;45.644;13.782;2023-04-01T07:15:28;99935.91;;;14.12;52.16
79150;BME280;68563;45.644;13.782;2023-04-01T07:18:01;99922.28;;;14.28;51.71
79150;BME280;68563;45.644;13.782;2023-04-01T07:20:30;99924.09;;;14.48;51.59
79150;BME280;68563;45.644;13.782;2023-04-01T07:23:02;99917.66;;;14.57;49.31
79150;BME280;68563;45.644;13.782;2023-04-01T07:25:37;99929.34;;;14.68;49.55
79150;BME280;68563;45.644;13.782;2023-04-01T07:28:06;99925.25;;;14.83;49.73
79150;BME280;68563;45.644;13.782;2023-04-01T07:33:37;99931.78;;;15.13;48.36
79150;BME280;68563;45.644;13.782;2023-04-01T07:42:16;99946.69;;;15.51;47.95
79150;BME280;68563;45.644;13.782;2023-04-01T07:48:21;99971.66;;;15.75;47.11
79150;BME280;68563;45.644;13.782;2023-04-01T07:51:19;99981.72;;;15.85;46.92
79150;BME280;68563;45.644;13.782;2023-04-01T07:53:57;99975.31;;;15.92;46.16
79150;BME280;68563;45.644;13.782;2023-04-01T07:59:25;99980.56;;;16.09;47.88
79150;BME280;68563;45.644;13.782;2023-04-01T08:07:17;99952.44;;;16.34;46.76
79150;BME280;68563;45.644;13.782;2023-04-01T08:15:23;99961.28;;;16.12;45.38
79150;BME280;68563;45.644;13.782;2023-04-01T08:20:39;99968.59;;;16.05;45.96
79150;BME280;68563;45.644;13.782;2023-04-01T08:25:51;99983.97;;;15.92;46.55
79150;BME280;68563;45.644;13.782;2023-04-01T08:28:24;99979.16;;;15.83;46.73
79150;BME280;68563;45.644;13.782;2023-04-01T08:30:56;99988.81;;;15.81;46.99
79150;BME280;68563;45.644;13.782;2023-04-01T08:33:31;99991.75;;;15.73;47.16
79150;BME280;68563;45.644;13.782;2023-04-01T08:36:04;99990.22;;;15.69;47.49
79150;BME280;68563;45.644;13.782;2023-04-01T08:38:41;99990.50;;;15.63;47.77
79150;BME280;68563;45.644;13.782;2023-04-01T08:55:26;99990.03;;;15.34;49.15
79150;BME280;68563;45.644;13.782;2023-04-01T09:00:33;99991.09;;;15.30;49.26
79150;BME280;68563;45.644;13.782;2023-04-01T09:06:24;99993.63;;;15.31;49.31
79150;BME280;68563;45.644;13.782;2023-04-01T09:15:20;99997.78;;;15.36;49.14
79150;BME280;68563;45.644;13.782;2023-04-01T09:43:25;99997.66;;;15.39;49.73
79150;BME280;68563;45.644;13.782;2023-04-01T09:54:12;100015.25;;;15.34;51.73
79150;BME280;68563;45.644;13.782;2023-04-01T10:05:22;100018.66;;;15.36;51.75
79150;BME280;68563;45.644;13.782;2023-04-01T10:13:50;100019.44;;;15.38;51.56
79150;BME280;68563;45.644;13.782;2023-04-01T11:03:56;100001.22;;;15.57;49.14
79150;BME280;68563;45.644;13.782;2023-04-01T11:32:54;99977.13;;;15.50;52.91
79150;BME280;68563;45.644;13.782;2023-04-01T11:36:17;99965.88;;;15.50;52.92
79150;BME280;68563;45.644;13.782;2023-04-01T11:46:52;99963.91;;;15.55;53.18
79150;BME280;68563;45.644;13.782;2023-04-01T11:52:07;99959.19;;;15.63;53.16
79150;BME280;68563;45.644;13.782;2023-04-01T12:14:30;99934.78;;;15.64;54.23
79150;BME280;68563;45.644;13.782;2023-04-01T12:22:27;99938.09;;;15.68;54.25
79150;BME280;68563;45.644;13.782;2023-04-01T12:27:53;99934.53;;;15.69;54.35
79150;BME280;68563;45.644;13.782;2023-04-01T12:54:48;99914.66;;;15.66;54.09
79150;BME280;68563;45.644;13.782;2023-04-01T12:58:10;99917.25;;;15.66;54.32
79150;BME280;68563;45.644;13.782;2023-04-01T13:06:01;99920.03;;;15.63;53.52
79150;BME280;68563;45.644;13.782;2023-04-01T13:30:54;99922.00;;;15.58;51.85
79150;BME280;68563;45.644;13.782;2023-04-01T13:42:01;99916.50;;;15.45;52.52
79150;BME280;68563;45.644;13.782;2023-04-01T13:44:36;99915.78;;;15.41;51.07
79150;BME280;68563;45.644;13.782;2023-04-01T13:55:55;99920.13;;;15.41;50.93
79150;BME280;68563;45.644;13.782;2023-04-01T14:02:05;99922.53;;;15.45;55.39
79150;BME280;68563;45.644;13.782;2023-04-01T14:07:46;99916.63;;;15.61;53.59
79150;BME280;68563;45.644;13.782;2023-04-01T14:18:37;99922.50;;;15.85;52.37
79150;BME280;68563;45.644;13.782;2023-04-01T14:28:57;99918.31;;;16.00;51.79
79150;BME280;68563;45.644;13.782;2023-04-01T14:31:44;99921.72;;;16.02;51.50
79150;BME280;68563;45.644;13.782;2023-04-01T14:48:37;99929.13;;;16.11;51.81
79150;BME280;68563;45.644;13.782;2023-04-01T14:51:34;99931.44;;;16.18;52.33
79150;BME280;68563;45.644;13.782;2023-04-01T14:54:20;99937.25;;;16.05;50.34
79150;BME280;68563;45.644;13.782;2023-04-01T14:56:51;99939.38;;;15.97;49.83
79150;BME280;68563;45.644;13.782;2023-04-01T14:59:29;99945.09;;;15.86;49.88
79150;BME280;68563;45.644;13.782;2023-04-01T15:04:56;99944.78;;;15.73;50.28
79150;BME280;68563;45.644;13.782;2023-04-01T15:08:01;99944.94;;;15.70;50.63
79150;BME280;68563;45.644;13.782;2023-04-01T15:19:03;99942.03;;;15.57;50.27
79150;BME280;68563;45.644;13.782;2023-04-01T15:21:56;99943.00;;;15.55;50.50
79150;BME280;68563;45.644;13.782;2023-04-01T15:24:24;99943.94;;;15.54;51.67
79150;BME280;68563;45.644;13.782;2023-04-01T15:38:38;99945.50;;;15.37;51.22
79150;BME280;68563;45.644;13.782;2023-04-01T15:41:22;99934.53;;;15.30;51.09
79150;BME280;68563;45.644;13.782;2023-04-01T15:43:50;99930.94;;;15.33;51.07
79150;BME280;68563;45.644;13.782;2023-04-01T15:49:11;99933.69;;;15.30;52.47
79150;BME280;68563;45.644;13.782;2023-04-01T16:08:16;99925.63;;;15.15;54.53
79150;BME280;68563;45.644;13.782;2023-04-01T16:19:53;99927.72;;;15.07;55.70
79150;BME280;68563;45.644;13.782;2023-04-01T16:22:49;99923.34;;;15.08;55.80
79150;BME280;68563;45.644;13.782;2023-04-01T16:25:36;99929.53;;;15.05;56.08
79150;BME280;68563;45.644;13.782;2023-04-01T16:30:57;99936.53;;;15.05;56.55
79150;BME280;68563;45.644;13.782;2023-04-01T16:36:28;99935.63;;;15.06;56.59
79150;BME280;68563;45.644;13.782;2023-04-01T16:41:48;99927.38;;;14.94;57.23
79150;BME280;68563;45.644;13.782;2023-04-01T16:44:25;99935.28;;;14.93;57.48
79150;BME280;68563;45.644;13.782;2023-04-01T16:46:54;99931.06;;;14.90;57.81
79150;BME280;68563;45.644;13.782;2023-04-01T16:49:28;99943.09;;;14.93;57.80
79150;BME280;68563;45.644;13.782;2023-04-01T16:52:42;99946.69;;;14.90;57.97
79150;BME280;68563;45.644;13.782;2023-04-01T16:55:17;99939.72;;;14.91;57.48
79150;BME280;68563;45.644;13.782;2023-04-01T16:57:53;99934.66;;;14.88;57.77
79150;BME280;68563;45.644;13.782;2023-04-01T17:01:07;99943.38;;;14.87;57.46
79150;BME280;68563;45.644;13.782;2023-04-01T17:03:18;99931.25;;;14.86;57.30
79150;BME280;68563;45.644;13.782;2023-04-01T17:24:51;99958.34;;;14.81;56.68
79150;BME280;68563;45.644;13.782;2023-04-01T17:48:30;99971.63;;;14.75;57.04
79150;BME280;68563;45.644;13.782;2023-04-01T17:51:36;99976.09;;;14.73;57.53
79150;BME280;68563;45.644;13.782;2023-04-01T17:57:49;99969.28;;;14.69;57.49
79150;BME280;68563;45.644;13.782;2023-04-01T18:00:27;99980.72;;;14.65;57.87
79150;BME280;68563;45.644;13.782;2023-04-01T18:19:22;100002.47;;;14.64;58.26
79150;BME280;68563;45.644;13.782;2023-04-01T18:22:15;100004.13;;;14.66;58.23
79150;BME280;68563;45.644;13.782;2023-04-01T18:24:47;100008.72;;;14.60;58.47
79150;BME280;68563;45.644;13.782;2023-04-01T18:27:37;100010.63;;;14.56;58.43
79150;BME280;68563;45.644;13.782;2023-04-01T18:30:16;100016.66;;;14.57;58.79
79150;BME280;68563;45.644;13.782;2023-04-01T18:32:51;100023.81;;;14.51;59.12
79150;BME280;68563;45.644;13.782;2023-04-01T18:38:20;100022.13;;;14.50;59.21
79150;BME280;68563;45.644;13.782;2023-04-01T18:51:53;100021.81;;;14.36;60.01
79150;BME280;68563;45.644;13.782;2023-04-01T18:57:18;100019.22;;;14.36;60.09
79150;BME280;68563;45.644;13.782;2023-04-01T18:59:51;100024.41;;;14.36;60.27
79150;BME280;68563;45.644;13.782;2023-04-01T19:04:52;100022.38;;;14.22;60.85
79150;BME280;68563;45.644;13.782;2023-04-01T19:07:39;100021.50;;;14.22;60.76
79150;BME280;68563;45.644;13.782;2023-04-01T19:10:26;100020.75;;;14.18;60.94
79150;BME280;68563;45.644;13.782;2023-04-01T19:13:17;100031.41;;;14.12;60.81
79150;BME280;68563;45.644;13.782;2023-04-01T19:19:01;100028.91;;;14.09;60.79
79150;BME280;68563;45.644;13.782;2023-04-01T19:21:44;100036.06;;;14.03;61.14
79150;BME280;68563;45.644;13.782;2023-04-01T19:27:28;100042.00;;;14.07;61.05
79150;BME280;68563;45.644;13.782;2023-04-01T19:38:37;100047.09;;;14.10;60.35
79150;BME280;68563;45.644;13.782;2023-04-01T20:00:18;100053.44;;;14.03;59.55
79150;BME280;68563;45.644;13.782;2023-04-01T20:11:38;100062.25;;;13.99;58.72
79150;BME280;68563;45.644;13.782;2023-04-01T20:17:02;100077.78;;;14.02;58.47
79150;BME280;68563;45.644;13.782;2023-04-01T20:19:42;100076.97;;;14.00;57.59
79150;BME280;68563;45.644;13.782;2023-04-01T20:28:04;100062.88;;;13.82;56.06
79150;BME280;68563;45.644;13.782;2023-04-01T20:35:49;100073.19;;;13.85;55.65
79150;BME280;68563;45.644;13.782;2023-04-01T21:07:48;100113.81;;;13.64;57.82
79150;BME280;68563;45.644;13.782;2023-04-01T21:13:01;100112.13;;;13.63;58.00
79150;BME280;68563;45.644;13.782;2023-04-01T21:18:52;100130.13;;;13.69;58.04
79150;BME280;68563;45.644;13.782;2023-04-01T21:24:35;100140.56;;;13.67;58.52
79150;BME280;68563;45.644;13.782;2023-04-01T21:27:29;100146.72;;;13.66;58.64
79150;BME280;68563;45.644;13.782;2023-04-01T21:33:01;100136.53;;;13.59;58.52
79150;BME280;68563;45.644;13.782;2023-04-01T22:05:46;100152.72;;;13.42;57.87
79150;BME280;68563;45.644;13.782;2023-04-01T22:11:23;100152.09;;;13.33;56.13
79150;BME280;68563;45.644;13.782;2023-04-01T22:14:12;100153.63;;;13.12;56.32
79150;BME280;68563;45.644;13.782;2023-04-01T22:16:49;100159.03;;;13.06;56.51
79150;BME280;68563;45.644;13.782;2023-04-01T22:25:10;100149.19;;;12.87;55.96
79150;BME280;68563;45.644;13.782;2023-04-01T22:27:50;100140.28;;;12.96;55.65
79150;BME280;68563;45.644;13.782;2023-04-01T22:30:30;100139.66;;;12.88;56.44
79150;BME280;68563;45.644;13.782;2023-04-01T22:41:28;100135.34;;;12.87;56.44
79150;BME280;68563;45.644;13.782;2023-04-01T22:43:59;100152.34;;;12.97;56.14
79150;BME280;68563;45.644;13.782;2023-04-01T22:46:52;100140.09;;;13.01;55.68
79150;BME280;68563;45.644;13.782;2023-04-01T22:49:45;100135.03;;;12.98;54.88
79150;BME280;68563;45.644;13.782;2023-04-01T22:52:27;100143.66;;;12.98;54.83
79150;BME280;68563;45.644;13.782;2023-04-01T22:55:04;100148.78;;;13.01;54.34
79150;BME280;68563;45.644;13.782;2023-04-01T22:57:54;100140.38;;;12.93;54.69
79150;BME280;68563;45.644;13.782;2023-04-01T23:00:32;100134.22;;;12.96;54.22
79150;BME280;68563;45.644;13.782;2023-04-01T23:03:19;100140.22;;;12.98;53.71
79150;BME280;68563;45.644;13.782;2023-04-01T23:06:00;100141.88;;;13.00;53.49
79150;BME280;68563;45.644;13.782;2023-04-01T23:08:37;100145.41;;;12.98;53.83
79150;BME280;68563;45.644;13.782;2023-04-01T23:11:08;100148.84;;;13.00;53.63
79150;BME280;68563;45.644;13.782;2023-04-01T23:13:43;100136.06;;;12.92;54.04
79150;BME280;68563;45.644;13.782;2023-04-01T23:16:11;100128.25;;;12.93;53.65
79150;BME280;68563;45.644;13.782;2023-04-01T23:21:45;100131.69;;;12.94;52.47
79150;BME280;68563;45.644;13.782;2023-04-01T23:24:28;100142.75;;;12.99;51.90
79150;BME280;68563;45.644;13.782;2023-04-01T23:27:12;100139.34;;;12.97;51.76
79150;BME280;68563;45.644;13.782;2023-04-01T23:29:43;100138.44;;;13.00;51.96
79150;BME280;68563;45.644;13.782;2023-04-01T23:32:17;100140.03;;;13.04;52.37
79150;BME280;68563;45.644;13.782;2023-04-01T23:34:51;100140.03;;;13.04;52.59
79150;BME280;68563;45.644;13.782;2023-04-01T23:37:18;100139.31;;;12.99;52.25
79150;BME280;68563;45.644;13.782;2023-04-01T23:39:47;100139.22;;;13.02;52.31
79150;BME280;68563;45.644;13.782;2023-04-01T23:42:26;100144.53;;;12.99;52.57
79150;BME280;68563;45.644;13.782;2023-04-01T23:44:56;100148.97;;;12.95;52.63
79150;BME280;68563;45.644;13.782;2023-04-01T23:47:24;100137.88;;;12.90;53.34
79150;BME280;68563;45.644;13.782;2023-04-01T23:50:11;100141.22;;;12.93;53.88
79150;BME280;68563;45.644;13.782;2023-04-01T23:53:00;100138.63;;;12.93;54.25
79150;BME280;68563;45.644;13.782;2023-04-01T23:55:41;100140.22;;;12.98;54.50
